sensor_id;sensor_type;location;lat;lon;timestamp;P1;durP1;ratioP1;P2;durP2;ratioP2
67819;SDS011;54618;52.018;5.576;2023-09-12T00:00:55;45.78;;;25.17;;
67819;SDS011;54618;52.018;5.576;2023-09-12T00:03:30;43.33;;;24.77;;
67819;SDS011;54618;52.018;5.576;2023-09-12T00:05:59;46.78;;;25.15;;
67819;SDS011;54618;52.018;5.576;2023-09-12T00:08:29;44.78;;;24.35;;
67819;SDS011;54618;52.018;5.576;2023-09-12T00:13:29;37.22;;;22.85;;
67819;SDS011;54618;52.018;5.576;2023-09-12T00:15:59;40.05;;;22.38;;
67819;SDS011;54618;52.018;5.576;2023-09-12T00:18:28;39.08;;;22.13;;
67819;SDS011;54618;52.018;5.576;2023-09-12T00:20:54;40.25;;;22.38;;
67819;SDS011;54618;52.018;5.576;2023-09-12T00:23:20;47.63;;;24.77;;
67819;SDS011;54618;52.018;5.576;2023-09-12T00:25:46;43.78;;;23.35;;
67819;SDS011;54618;52.018;5.576;2023-09-12T00:28:12;34.30;;;20.40;;
67819;SDS011;54618;52.018;5.576;2023-09-12T00:30:37;38.05;;;23.15;;
67819;SDS011;54618;52.018;5.576;2023-09-12T00:33:03;33.83;;;21.45;;
67819;SDS011;54618;52.018;5.576;2023-09-12T00:35:29;35.10;;;21.70;;
67819;SDS011;54618;52.018;5.576;2023-09-12T00:37:54;38.97;;;22.65;;
67819;SDS011;54618;52.018;5.576;2023-09-12T00:40:20;39.05;;;23.02;;
67819;SDS011;54618;52.018;5.576;2023-09-12T00:42:45;34.67;;;22.05;;
67819;SDS011;54618;52.018;5.576;2023-09-12T00:45:10;31.05;;;19.95;;
67819;SDS011;54618;52.018;5.576;2023-09-12T00:47:36;31.48;;;20.25;;
67819;SDS011;54618;52.018;5.576;2023-09-12T00:50:02;35.03;;;21.23;;
67819;SDS011;54618;52.018;5.576;2023-09-12T00:52:30;35.58;;;20.92;;
67819;SDS011;54618;52.018;5.576;2023-09-12T00:54:58;31.60;;;20.00;;
67819;SDS011;54618;52.018;5.576;2023-09-12T00:57:23;34.10;;;21.35;;
67819;SDS011;54618;52.018;5.576;2023-09-12T00:59:53;34.08;;;20.88;;
67819;SDS011;54618;52.018;5.576;2023-09-12T01:02:19;37.47;;;22.20;;
67819;SDS011;54618;52.018;5.576;2023-09-12T01:04:45;39.53;;;23.65;;
67819;SDS011;54618;52.018;5.576;2023-09-12T01:07:11;39.10;;;23.02;;
67819;SDS011;54618;52.018;5.576;2023-09-12T01:09:37;42.25;;;23.67;;
67819;SDS011;54618;52.018;5.576;2023-09-12T01:12:03;46.45;;;25.17;;
67819;SDS011;54618;52.018;5.576;2023-09-12T01:14:29;39.53;;;23.45;;
67819;SDS011;54618;52.018;5.576;2023-09-12T01:16:55;40.42;;;23.25;;
67819;SDS011;54618;52.018;5.576;2023-09-12T01:27:34;37.00;;;22.20;;
67819;SDS011;54618;52.018;5.576;2023-09-12T01:30:04;41.80;;;23.00;;
67819;SDS011;54618;52.018;5.576;2023-09-12T01:32:32;39.35;;;23.42;;
67819;SDS011;54618;52.018;5.576;2023-09-12T01:34:59;38.58;;;23.90;;
67819;SDS011;54618;52.018;5.576;2023-09-12T01:37:25;45.45;;;25.77;;
67819;SDS011;54618;52.018;5.576;2023-09-12T01:39:51;38.42;;;22.73;;
67819;SDS011;54618;52.018;5.576;2023-09-12T01:42:18;46.17;;;25.73;;
67819;SDS011;54618;52.018;5.576;2023-09-12T01:44:45;34.83;;;20.80;;
67819;SDS011;54618;52.018;5.576;2023-09-12T01:47:11;35.75;;;21.30;;
67819;SDS011;54618;52.018;5.576;2023-09-12T01:49:44;30.98;;;18.63;;
67819;SDS011;54618;52.018;5.576;2023-09-12T01:52:12;39.95;;;22.92;;
67819;SDS011;54618;52.018;5.576;2023-09-12T01:54:38;34.15;;;20.75;;
67819;SDS011;54618;52.018;5.576;2023-09-12T01:57:06;34.40;;;22.13;;
67819;SDS011;54618;52.018;5.576;2023-09-12T01:59:33;37.90;;;22.30;;
67819;SDS011;54618;52.018;5.576;2023-09-12T02:01:59;36.05;;;21.33;;
67819;SDS011;54618;52.018;5.576;2023-09-12T02:04:24;31.63;;;19.70;;
67819;SDS011;54618;52.018;5.576;2023-09-12T02:06:50;28.77;;;18.50;;
67819;SDS011;54618;52.018;5.576;2023-09-12T02:09:15;36.70;;;21.02;;
67819;SDS011;54618;52.018;5.576;2023-09-12T02:11:41;38.42;;;22.80;;
67819;SDS011;54618;52.018;5.576;2023-09-12T02:14:06;37.42;;;23.02;;
67819;SDS011;54618;52.018;5.576;2023-09-12T02:16:35;36.40;;;21.67;;
67819;SDS011;54618;52.018;5.576;2023-09-12T02:19:02;32.00;;;19.25;;
67819;SDS011;54618;52.018;5.576;2023-09-12T02:21:28;35.53;;;20.13;;
67819;SDS011;54618;52.018;5.576;2023-09-12T02:23:54;38.88;;;21.13;;
67819;SDS011;54618;52.018;5.576;2023-09-12T02:26:19;32.75;;;19.58;;
67819;SDS011;54618;52.018;5.576;2023-09-12T02:28:45;34.80;;;20.95;;
67819;SDS011;54618;52.018;5.576;2023-09-12T02:31:11;32.00;;;19.27;;
67819;SDS011;54618;52.018;5.576;2023-09-12T02:33:37;36.50;;;20.75;;
67819;SDS011;54618;52.018;5.576;2023-09-12T02:36:03;31.02;;;17.95;;
67819;SDS011;54618;52.018;5.576;2023-09-12T02:38:30;33.15;;;19.95;;
67819;SDS011;54618;52.018;5.576;2023-09-12T02:40:55;34.03;;;19.38;;
67819;SDS011;54618;52.018;5.576;2023-09-12T02:43:21;29.88;;;18.77;;
67819;SDS011;54618;52.018;5.576;2023-09-12T02:45:46;29.70;;;18.70;;
67819;SDS011;54618;52.018;5.576;2023-09-12T02:48:12;38.03;;;20.75;;
67819;SDS011;54618;52.018;5.576;2023-09-12T02:50:38;29.08;;;16.65;;
67819;SDS011;54618;52.018;5.576;2023-09-12T02:53:03;31.98;;;18.95;;
67819;SDS011;54618;52.018;5.576;2023-09-12T02:55:29;32.03;;;19.25;;
67819;SDS011;54618;52.018;5.576;2023-09-12T02:57:55;27.65;;;16.70;;
67819;SDS011;54618;52.018;5.576;2023-09-12T03:00:21;35.95;;;19.83;;
67819;SDS011;54618;52.018;5.576;2023-09-12T03:02:47;39.75;;;20.35;;
67819;SDS011;54618;52.018;5.576;2023-09-12T03:05:13;42.08;;;20.95;;
67819;SDS011;54618;52.018;5.576;2023-09-12T03:07:38;40.17;;;21.40;;
67819;SDS011;54618;52.018;5.576;2023-09-12T03:10:04;31.75;;;20.17;;
67819;SDS011;54618;52.018;5.576;2023-09-12T03:12:30;30.55;;;18.77;;
67819;SDS011;54618;52.018;5.576;2023-09-12T03:14:56;37.10;;;20.58;;
67819;SDS011;54618;52.018;5.576;2023-09-12T03:17:30;45.20;;;23.08;;
67819;SDS011;54618;52.018;5.576;2023-09-12T03:19:55;38.85;;;22.17;;
67819;SDS011;54618;52.018;5.576;2023-09-12T03:22:21;34.78;;;20.65;;
67819;SDS011;54618;52.018;5.576;2023-09-12T03:24:46;42.63;;;23.60;;
67819;SDS011;54618;52.018;5.576;2023-09-12T03:27:12;39.92;;;21.67;;
67819;SDS011;54618;52.018;5.576;2023-09-12T03:29:37;36.33;;;20.20;;
67819;SDS011;54618;52.018;5.576;2023-09-12T03:32:03;32.70;;;19.17;;
67819;SDS011;54618;52.018;5.576;2023-09-12T03:34:29;37.30;;;19.67;;
67819;SDS011;54618;52.018;5.576;2023-09-12T03:36:54;30.42;;;17.08;;
67819;SDS011;54618;52.018;5.576;2023-09-12T03:39:20;30.05;;;18.40;;
67819;SDS011;54618;52.018;5.576;2023-09-12T03:41:45;35.35;;;19.52;;
67819;SDS011;54618;52.018;5.576;2023-09-12T03:44:11;33.80;;;18.52;;
67819;SDS011;54618;52.018;5.576;2023-09-12T03:46:36;35.33;;;18.73;;
67819;SDS011;54618;52.018;5.576;2023-09-12T03:49:02;35.42;;;19.15;;
67819;SDS011;54618;52.018;5.576;2023-09-12T03:51:28;29.77;;;18.35;;
67819;SDS011;54618;52.018;5.576;2023-09-12T03:53:54;33.92;;;18.20;;
67819;SDS011;54618;52.018;5.576;2023-09-12T03:56:19;30.83;;;17.92;;
67819;SDS011;54618;52.018;5.576;2023-09-12T03:58:45;35.80;;;19.35;;
67819;SDS011;54618;52.018;5.576;2023-09-12T04:01:11;29.10;;;18.50;;
67819;SDS011;54618;52.018;5.576;2023-09-12T04:03:36;33.75;;;18.60;;
67819;SDS011;54618;52.018;5.576;2023-09-12T04:06:02;34.40;;;18.73;;
67819;SDS011;54618;52.018;5.576;2023-09-12T04:08:28;27.02;;;14.52;;
67819;SDS011;54618;52.018;5.576;2023-09-12T04:10:53;21.67;;;13.27;;
67819;SDS011;54618;52.018;5.576;2023-09-12T04:13:19;16.55;;;10.55;;
67819;SDS011;54618;52.018;5.576;2023-09-12T04:15:45;18.00;;;10.60;;
67819;SDS011;54618;52.018;5.576;2023-09-12T04:18:10;17.92;;;10.43;;
67819;SDS011;54618;52.018;5.576;2023-09-12T04:20:36;19.73;;;12.75;;
67819;SDS011;54618;52.018;5.576;2023-09-12T04:23:01;20.77;;;12.35;;
67819;SDS011;54618;52.018;5.576;2023-09-12T04:25:31;20.80;;;12.30;;
67819;SDS011;54618;52.018;5.576;2023-09-12T04:27:59;22.42;;;13.15;;
67819;SDS011;54618;52.018;5.576;2023-09-12T04:30:25;22.80;;;13.80;;
67819;SDS011;54618;52.018;5.576;2023-09-12T04:32:50;25.33;;;16.00;;
67819;SDS011;54618;52.018;5.576;2023-09-12T04:35:16;22.95;;;14.38;;
67819;SDS011;54618;52.018;5.576;2023-09-12T04:37:44;24.00;;;14.13;;
67819;SDS011;54618;52.018;5.576;2023-09-12T04:40:10;24.88;;;14.73;;
67819;SDS011;54618;52.018;5.576;2023-09-12T04:42:35;26.02;;;15.70;;
67819;SDS011;54618;52.018;5.576;2023-09-12T04:45:01;27.55;;;15.15;;
67819;SDS011;54618;52.018;5.576;2023-09-12T04:47:30;25.35;;;13.85;;
67819;SDS011;54618;52.018;5.576;2023-09-12T04:49:55;28.08;;;14.55;;
67819;SDS011;54618;52.018;5.576;2023-09-12T04:52:21;22.13;;;13.85;;
67819;SDS011;54618;52.018;5.576;2023-09-12T04:54:46;19.75;;;12.90;;
67819;SDS011;54618;52.018;5.576;2023-09-12T04:57:12;22.45;;;13.35;;
67819;SDS011;54618;52.018;5.576;2023-09-12T04:59:37;21.67;;;13.43;;
67819;SDS011;54618;52.018;5.576;2023-09-12T05:02:03;17.13;;;9.93;;
67819;SDS011;54618;52.018;5.576;2023-09-12T05:04:28;13.05;;;9.15;;
67819;SDS011;54618;52.018;5.576;2023-09-12T05:06:54;15.88;;;10.18;;
67819;SDS011;54618;52.018;5.576;2023-09-12T05:09:19;14.15;;;9.82;;
67819;SDS011;54618;52.018;5.576;2023-09-12T05:11:45;12.23;;;8.20;;
67819;SDS011;54618;52.018;5.576;2023-09-12T05:14:10;13.75;;;9.40;;
67819;SDS011;54618;52.018;5.576;2023-09-12T05:16:36;20.98;;;13.80;;
67819;SDS011;54618;52.018;5.576;2023-09-12T05:19:02;22.30;;;13.40;;
67819;SDS011;54618;52.018;5.576;2023-09-12T05:21:28;30.30;;;15.02;;
67819;SDS011;54618;52.018;5.576;2023-09-12T05:23:54;36.85;;;19.40;;
67819;SDS011;54618;52.018;5.576;2023-09-12T05:26:19;30.60;;;15.95;;
67819;SDS011;54618;52.018;5.576;2023-09-12T05:28:45;30.95;;;16.88;;
67819;SDS011;54618;52.018;5.576;2023-09-12T05:31:10;31.40;;;17.25;;
67819;SDS011;54618;52.018;5.576;2023-09-12T05:33:36;36.05;;;17.98;;
67819;SDS011;54618;52.018;5.576;2023-09-12T05:36:01;33.45;;;19.13;;
67819;SDS011;54618;52.018;5.576;2023-09-12T05:38:28;37.72;;;21.02;;
67819;SDS011;54618;52.018;5.576;2023-09-12T05:40:53;33.78;;;18.85;;
67819;SDS011;54618;52.018;5.576;2023-09-12T05:43:19;39.35;;;20.85;;
67819;SDS011;54618;52.018;5.576;2023-09-12T05:45:44;40.75;;;21.67;;
67819;SDS011;54618;52.018;5.576;2023-09-12T05:48:10;41.90;;;22.20;;
67819;SDS011;54618;52.018;5.576;2023-09-12T05:50:36;43.00;;;21.98;;
67819;SDS011;54618;52.018;5.576;2023-09-12T05:53:02;42.70;;;20.75;;
67819;SDS011;54618;52.018;5.576;2023-09-12T05:55:28;50.33;;;21.88;;
67819;SDS011;54618;52.018;5.576;2023-09-12T05:57:53;41.42;;;20.20;;
67819;SDS011;54618;52.018;5.576;2023-09-12T06:00:19;68.43;;;24.65;;
67819;SDS011;54618;52.018;5.576;2023-09-12T06:02:46;58.50;;;23.65;;
67819;SDS011;54618;52.018;5.576;2023-09-12T06:05:12;72.20;;;27.85;;
67819;SDS011;54618;52.018;5.576;2023-09-12T06:07:38;63.42;;;26.02;;
67819;SDS011;54618;52.018;5.576;2023-09-12T06:10:05;60.05;;;24.80;;
67819;SDS011;54618;52.018;5.576;2023-09-12T06:12:31;51.55;;;23.83;;
67819;SDS011;54618;52.018;5.576;2023-09-12T06:14:58;44.90;;;21.70;;
67819;SDS011;54618;52.018;5.576;2023-09-12T06:17:24;43.55;;;23.73;;
67819;SDS011;54618;52.018;5.576;2023-09-12T06:19:50;43.40;;;23.30;;
67819;SDS011;54618;52.018;5.576;2023-09-12T06:22:16;49.83;;;25.95;;
67819;SDS011;54618;52.018;5.576;2023-09-12T06:24:42;53.15;;;26.10;;
67819;SDS011;54618;52.018;5.576;2023-09-12T06:27:08;49.83;;;27.00;;
67819;SDS011;54618;52.018;5.576;2023-09-12T06:29:33;47.97;;;26.60;;
67819;SDS011;54618;52.018;5.576;2023-09-12T06:31:59;46.42;;;24.63;;
67819;SDS011;54618;52.018;5.576;2023-09-12T06:34:24;43.97;;;23.00;;
67819;SDS011;54618;52.018;5.576;2023-09-12T06:36:52;46.78;;;24.35;;
67819;SDS011;54618;52.018;5.576;2023-09-12T06:39:17;52.58;;;26.00;;
67819;SDS011;54618;52.018;5.576;2023-09-12T06:41:43;50.22;;;26.05;;
67819;SDS011;54618;52.018;5.576;2023-09-12T06:44:09;57.03;;;26.40;;
67819;SDS011;54618;52.018;5.576;2023-09-12T06:46:34;50.22;;;25.35;;
67819;SDS011;54618;52.018;5.576;2023-09-12T06:49:02;54.55;;;27.08;;
67819;SDS011;54618;52.018;5.576;2023-09-12T06:51:28;54.95;;;27.05;;
67819;SDS011;54618;52.018;5.576;2023-09-12T06:53:53;55.33;;;27.15;;
67819;SDS011;54618;52.018;5.576;2023-09-12T06:56:19;57.30;;;27.83;;
67819;SDS011;54618;52.018;5.576;2023-09-12T06:58:45;53.13;;;25.65;;
67819;SDS011;54618;52.018;5.576;2023-09-12T07:01:10;54.95;;;25.83;;
67819;SDS011;54618;52.018;5.576;2023-09-12T07:03:36;52.50;;;25.50;;
67819;SDS011;54618;52.018;5.576;2023-09-12T07:06:02;54.03;;;25.65;;
67819;SDS011;54618;52.018;5.576;2023-09-12T07:08:29;51.67;;;25.73;;
67819;SDS011;54618;52.018;5.576;2023-09-12T07:10:55;53.13;;;26.10;;
67819;SDS011;54618;52.018;5.576;2023-09-12T07:13:22;51.78;;;26.20;;
67819;SDS011;54618;52.018;5.576;2023-09-12T07:15:49;50.40;;;25.67;;
67819;SDS011;54618;52.018;5.576;2023-09-12T07:18:15;52.05;;;26.15;;
67819;SDS011;54618;52.018;5.576;2023-09-12T07:20:40;54.88;;;26.98;;
67819;SDS011;54618;52.018;5.576;2023-09-12T07:23:06;49.72;;;24.42;;
67819;SDS011;54618;52.018;5.576;2023-09-12T07:25:37;52.63;;;26.15;;
67819;SDS011;54618;52.018;5.576;2023-09-12T07:28:04;44.78;;;22.95;;
67819;SDS011;54618;52.018;5.576;2023-09-12T07:30:30;53.45;;;25.48;;
67819;SDS011;54618;52.018;5.576;2023-09-12T07:32:56;42.42;;;22.55;;
67819;SDS011;54618;52.018;5.576;2023-09-12T07:35:21;50.75;;;25.38;;
67819;SDS011;54618;52.018;5.576;2023-09-12T07:37:49;47.03;;;24.08;;
67819;SDS011;54618;52.018;5.576;2023-09-12T07:40:14;43.28;;;23.25;;
67819;SDS011;54618;52.018;5.576;2023-09-12T07:42:40;43.63;;;23.30;;
67819;SDS011;54618;52.018;5.576;2023-09-12T07:45:06;42.50;;;22.50;;
67819;SDS011;54618;52.018;5.576;2023-09-12T07:47:32;43.90;;;23.20;;
67819;SDS011;54618;52.018;5.576;2023-09-12T07:49:58;44.65;;;22.85;;
67819;SDS011;54618;52.018;5.576;2023-09-12T07:52:25;43.45;;;23.23;;
67819;SDS011;54618;52.018;5.576;2023-09-12T07:54:58;44.42;;;22.83;;
67819;SDS011;54618;52.018;5.576;2023-09-12T07:59:50;45.35;;;22.92;;
67819;SDS011;54618;52.018;5.576;2023-09-12T08:02:15;41.55;;;22.23;;
67819;SDS011;54618;52.018;5.576;2023-09-12T08:04:41;43.88;;;23.08;;
67819;SDS011;54618;52.018;5.576;2023-09-12T08:07:06;37.25;;;20.38;;
67819;SDS011;54618;52.018;5.576;2023-09-12T08:09:51;42.47;;;22.17;;
67819;SDS011;54618;52.018;5.576;2023-09-12T08:12:17;34.40;;;18.00;;
67819;SDS011;54618;52.018;5.576;2023-09-12T08:14:44;35.42;;;19.30;;
67819;SDS011;54618;52.018;5.576;2023-09-12T08:17:10;33.78;;;18.73;;
67819;SDS011;54618;52.018;5.576;2023-09-12T08:19:37;36.13;;;19.83;;
67819;SDS011;54618;52.018;5.576;2023-09-12T08:22:02;38.30;;;20.95;;
67819;SDS011;54618;52.018;5.576;2023-09-12T08:24:28;38.15;;;20.45;;
67819;SDS011;54618;52.018;5.576;2023-09-12T08:26:53;30.55;;;18.05;;
67819;SDS011;54618;52.018;5.576;2023-09-12T08:29:19;31.33;;;18.23;;
67819;SDS011;54618;52.018;5.576;2023-09-12T08:31:45;34.47;;;18.40;;
67819;SDS011;54618;52.018;5.576;2023-09-12T08:34:12;31.23;;;19.13;;
67819;SDS011;54618;52.018;5.576;2023-09-12T08:36:37;29.98;;;16.33;;
67819;SDS011;54618;52.018;5.576;2023-09-12T08:39:03;30.67;;;17.75;;
67819;SDS011;54618;52.018;5.576;2023-09-12T08:41:30;26.65;;;15.75;;
67819;SDS011;54618;52.018;5.576;2023-09-12T08:43:55;27.98;;;16.83;;
67819;SDS011;54618;52.018;5.576;2023-09-12T08:46:21;25.70;;;16.02;;
67819;SDS011;54618;52.018;5.576;2023-09-12T08:48:48;22.45;;;13.52;;
67819;SDS011;54618;52.018;5.576;2023-09-12T08:51:15;22.00;;;13.38;;
67819;SDS011;54618;52.018;5.576;2023-09-12T08:53:40;20.55;;;12.52;;
67819;SDS011;54618;52.018;5.576;2023-09-12T08:56:06;20.95;;;12.43;;
67819;SDS011;54618;52.018;5.576;2023-09-12T08:58:34;18.33;;;11.25;;
67819;SDS011;54618;52.018;5.576;2023-09-12T09:01:00;17.80;;;10.50;;
67819;SDS011;54618;52.018;5.576;2023-09-12T09:03:28;19.80;;;11.27;;
67819;SDS011;54618;52.018;5.576;2023-09-12T09:05:54;16.67;;;9.05;;
67819;SDS011;54618;52.018;5.576;2023-09-12T09:08:21;17.85;;;10.23;;
67819;SDS011;54618;52.018;5.576;2023-09-12T09:10:59;20.85;;;11.30;;
67819;SDS011;54618;52.018;5.576;2023-09-12T09:13:30;21.25;;;12.50;;
67819;SDS011;54618;52.018;5.576;2023-09-12T09:16:15;21.38;;;13.30;;
67819;SDS011;54618;52.018;5.576;2023-09-12T09:21:37;24.27;;;12.75;;
67819;SDS011;54618;52.018;5.576;2023-09-12T09:24:07;18.63;;;11.48;;
67819;SDS011;54618;52.018;5.576;2023-09-12T09:29:06;20.60;;;13.60;;
67819;SDS011;54618;52.018;5.576;2023-09-12T09:31:39;22.55;;;12.52;;
67819;SDS011;54618;52.018;5.576;2023-09-12T09:34:10;27.85;;;15.35;;
67819;SDS011;54618;52.018;5.576;2023-09-12T09:36:40;28.95;;;16.05;;
67819;SDS011;54618;52.018;5.576;2023-09-12T09:39:07;25.23;;;14.27;;
67819;SDS011;54618;52.018;5.576;2023-09-12T09:41:33;24.05;;;13.60;;
67819;SDS011;54618;52.018;5.576;2023-09-12T09:43:59;29.00;;;16.13;;
67819;SDS011;54618;52.018;5.576;2023-09-12T09:46:25;26.90;;;16.58;;
67819;SDS011;54618;52.018;5.576;2023-09-12T09:48:51;28.92;;;17.15;;
67819;SDS011;54618;52.018;5.576;2023-09-12T09:51:17;30.77;;;18.90;;
67819;SDS011;54618;52.018;5.576;2023-09-12T09:53:43;32.50;;;18.90;;
67819;SDS011;54618;52.018;5.576;2023-09-12T09:58:51;37.47;;;21.27;;
67819;SDS011;54618;52.018;5.576;2023-09-12T10:01:22;32.72;;;20.27;;
67819;SDS011;54618;52.018;5.576;2023-09-12T10:03:51;32.03;;;19.05;;
67819;SDS011;54618;52.018;5.576;2023-09-12T10:06:18;36.83;;;18.58;;
67819;SDS011;54618;52.018;5.576;2023-09-12T10:08:45;36.20;;;19.90;;
67819;SDS011;54618;52.018;5.576;2023-09-12T10:11:15;37.33;;;20.83;;
67819;SDS011;54618;52.018;5.576;2023-09-12T10:13:44;32.22;;;19.45;;
67819;SDS011;54618;52.018;5.576;2023-09-12T10:16:14;32.03;;;18.90;;
67819;SDS011;54618;52.018;5.576;2023-09-12T10:18:42;27.40;;;17.20;;
67819;SDS011;54618;52.018;5.576;2023-09-12T10:21:15;29.60;;;16.10;;
67819;SDS011;54618;52.018;5.576;2023-09-12T10:23:48;27.63;;;15.57;;
67819;SDS011;54618;52.018;5.576;2023-09-12T10:26:16;23.27;;;14.18;;
67819;SDS011;54618;52.018;5.576;2023-09-12T10:28:42;22.30;;;14.25;;
67819;SDS011;54618;52.018;5.576;2023-09-12T10:31:08;26.65;;;14.93;;
67819;SDS011;54618;52.018;5.576;2023-09-12T10:33:37;24.90;;;14.75;;
67819;SDS011;54618;52.018;5.576;2023-09-12T10:36:03;24.55;;;13.68;;
67819;SDS011;54618;52.018;5.576;2023-09-12T10:38:30;20.63;;;12.95;;
67819;SDS011;54618;52.018;5.576;2023-09-12T10:41:00;20.05;;;12.40;;
67819;SDS011;54618;52.018;5.576;2023-09-12T10:43:28;19.30;;;11.50;;
67819;SDS011;54618;52.018;5.576;2023-09-12T10:45:54;19.90;;;12.27;;
67819;SDS011;54618;52.018;5.576;2023-09-12T10:48:24;21.73;;;12.10;;
67819;SDS011;54618;52.018;5.576;2023-09-12T10:50:50;21.27;;;12.80;;
67819;SDS011;54618;52.018;5.576;2023-09-12T10:53:15;19.55;;;12.18;;
67819;SDS011;54618;52.018;5.576;2023-09-12T10:55:41;19.70;;;12.23;;
67819;SDS011;54618;52.018;5.576;2023-09-12T10:58:23;21.67;;;11.85;;
67819;SDS011;54618;52.018;5.576;2023-09-12T11:01:21;20.35;;;11.93;;
67819;SDS011;54618;52.018;5.576;2023-09-12T11:03:50;20.92;;;12.13;;
67819;SDS011;54618;52.018;5.576;2023-09-12T11:06:19;21.92;;;12.30;;
67819;SDS011;54618;52.018;5.576;2023-09-12T11:09:14;21.67;;;13.48;;
67819;SDS011;54618;52.018;5.576;2023-09-12T11:11:38;22.05;;;14.02;;
67819;SDS011;54618;52.018;5.576;2023-09-12T11:14:04;21.25;;;13.05;;
67819;SDS011;54618;52.018;5.576;2023-09-12T11:16:30;25.00;;;15.07;;
67819;SDS011;54618;52.018;5.576;2023-09-12T11:21:38;24.17;;;14.85;;
67819;SDS011;54618;52.018;5.576;2023-09-12T11:24:03;23.00;;;14.15;;
67819;SDS011;54618;52.018;5.576;2023-09-12T11:26:29;21.73;;;12.98;;
67819;SDS011;54618;52.018;5.576;2023-09-12T11:28:55;22.77;;;13.60;;
67819;SDS011;54618;52.018;5.576;2023-09-12T11:31:26;19.40;;;11.32;;
67819;SDS011;54618;52.018;5.576;2023-09-12T11:33:55;20.63;;;12.52;;
67819;SDS011;54618;52.018;5.576;2023-09-12T11:36:26;20.83;;;13.02;;
67819;SDS011;54618;52.018;5.576;2023-09-12T11:38:51;20.23;;;12.23;;
67819;SDS011;54618;52.018;5.576;2023-09-12T11:41:38;21.73;;;12.73;;
67819;SDS011;54618;52.018;5.576;2023-09-12T11:44:06;20.70;;;12.45;;
67819;SDS011;54618;52.018;5.576;2023-09-12T11:46:32;19.40;;;11.35;;
67819;SDS011;54618;52.018;5.576;2023-09-12T11:49:00;18.77;;;11.55;;
67819;SDS011;54618;52.018;5.576;2023-09-12T11:51:27;15.77;;;10.43;;
67819;SDS011;54618;52.018;5.576;2023-09-12T11:53:54;15.25;;;10.63;;
67819;SDS011;54618;52.018;5.576;2023-09-12T11:56:22;18.38;;;10.15;;
67819;SDS011;54618;52.018;5.576;2023-09-12T11:58:48;18.73;;;10.73;;
67819;SDS011;54618;52.018;5.576;2023-09-12T12:01:14;16.42;;;10.57;;
67819;SDS011;54618;52.018;5.576;2023-09-12T12:03:40;17.45;;;10.35;;
67819;SDS011;54618;52.018;5.576;2023-09-12T12:06:05;18.08;;;10.90;;
67819;SDS011;54618;52.018;5.576;2023-09-12T12:08:31;18.20;;;9.60;;
67819;SDS011;54618;52.018;5.576;2023-09-12T12:11:00;24.55;;;16.45;;
67819;SDS011;54618;52.018;5.576;2023-09-12T12:13:25;25.38;;;16.15;;
67819;SDS011;54618;52.018;5.576;2023-09-12T12:15:52;25.65;;;16.50;;
67819;SDS011;54618;52.018;5.576;2023-09-12T12:18:18;23.48;;;14.90;;
67819;SDS011;54618;52.018;5.576;2023-09-12T12:20:44;20.55;;;14.63;;
67819;SDS011;54618;52.018;5.576;2023-09-12T12:23:09;19.25;;;13.20;;
67819;SDS011;54618;52.018;5.576;2023-09-12T12:25:35;21.25;;;13.68;;
67819;SDS011;54618;52.018;5.576;2023-09-12T12:28:01;21.00;;;13.30;;
67819;SDS011;54618;52.018;5.576;2023-09-12T12:30:31;19.42;;;12.15;;
67819;SDS011;54618;52.018;5.576;2023-09-12T12:33:06;20.52;;;12.50;;
67819;SDS011;54618;52.018;5.576;2023-09-12T12:35:33;17.92;;;11.68;;
67819;SDS011;54618;52.018;5.576;2023-09-12T12:38:01;19.52;;;12.52;;
67819;SDS011;54618;52.018;5.576;2023-09-12T12:40:26;21.45;;;12.73;;
67819;SDS011;54618;52.018;5.576;2023-09-12T12:42:52;17.55;;;11.68;;
67819;SDS011;54618;52.018;5.576;2023-09-12T12:45:18;20.00;;;12.65;;
67819;SDS011;54618;52.018;5.576;2023-09-12T12:47:45;20.13;;;12.10;;
67819;SDS011;54618;52.018;5.576;2023-09-12T12:50:12;16.58;;;11.80;;
67819;SDS011;54618;52.018;5.576;2023-09-12T12:52:39;19.17;;;12.00;;
67819;SDS011;54618;52.018;5.576;2023-09-12T12:55:06;21.85;;;12.10;;
67819;SDS011;54618;52.018;5.576;2023-09-12T12:57:37;17.77;;;10.43;;
67819;SDS011;54618;52.018;5.576;2023-09-12T13:00:22;18.38;;;11.68;;
67819;SDS011;54618;52.018;5.576;2023-09-12T13:02:48;18.63;;;11.02;;
67819;SDS011;54618;52.018;5.576;2023-09-12T13:05:26;19.30;;;10.93;;
67819;SDS011;54618;52.018;5.576;2023-09-12T13:07:56;16.50;;;10.30;;
67819;SDS011;54618;52.018;5.576;2023-09-12T13:10:22;15.85;;;9.90;;
67819;SDS011;54618;52.018;5.576;2023-09-12T13:12:48;13.32;;;9.40;;
67819;SDS011;54618;52.018;5.576;2023-09-12T13:15:14;14.63;;;9.20;;
67819;SDS011;54618;52.018;5.576;2023-09-12T13:17:42;16.58;;;10.70;;
67819;SDS011;54618;52.018;5.576;2023-09-12T13:20:08;17.88;;;11.45;;
67819;SDS011;54618;52.018;5.576;2023-09-12T13:22:34;15.60;;;10.38;;
67819;SDS011;54618;52.018;5.576;2023-09-12T13:25:00;15.35;;;10.52;;
67819;SDS011;54618;52.018;5.576;2023-09-12T13:27:27;15.65;;;10.32;;
67819;SDS011;54618;52.018;5.576;2023-09-12T13:29:55;13.25;;;8.63;;
67819;SDS011;54618;52.018;5.576;2023-09-12T13:32:21;16.98;;;10.90;;
67819;SDS011;54618;52.018;5.576;2023-09-12T13:34:46;13.75;;;9.27;;
67819;SDS011;54618;52.018;5.576;2023-09-12T13:37:12;16.63;;;9.70;;
67819;SDS011;54618;52.018;5.576;2023-09-12T13:39:37;15.48;;;8.88;;
67819;SDS011;54618;52.018;5.576;2023-09-12T13:42:05;13.65;;;8.27;;
67819;SDS011;54618;52.018;5.576;2023-09-12T13:44:33;13.15;;;8.07;;
67819;SDS011;54618;52.018;5.576;2023-09-12T13:47:02;11.35;;;8.10;;
67819;SDS011;54618;52.018;5.576;2023-09-12T13:49:30;10.40;;;6.72;;
67819;SDS011;54618;52.018;5.576;2023-09-12T13:51:56;13.13;;;6.32;;
67819;SDS011;54618;52.018;5.576;2023-09-12T13:54:21;9.30;;;6.50;;
67819;SDS011;54618;52.018;5.576;2023-09-12T13:56:47;9.07;;;4.78;;
67819;SDS011;54618;52.018;5.576;2023-09-12T13:59:12;8.85;;;4.85;;
67819;SDS011;54618;52.018;5.576;2023-09-12T14:01:38;8.48;;;4.50;;
67819;SDS011;54618;52.018;5.576;2023-09-12T14:04:03;6.03;;;4.10;;
67819;SDS011;54618;52.018;5.576;2023-09-12T14:06:29;9.40;;;4.88;;
67819;SDS011;54618;52.018;5.576;2023-09-12T14:08:55;6.28;;;3.50;;
67819;SDS011;54618;52.018;5.576;2023-09-12T14:11:20;6.72;;;3.90;;
67819;SDS011;54618;52.018;5.576;2023-09-12T14:13:46;6.53;;;4.13;;
67819;SDS011;54618;52.018;5.576;2023-09-12T14:16:12;6.13;;;3.83;;
67819;SDS011;54618;52.018;5.576;2023-09-12T14:18:38;10.20;;;5.25;;
67819;SDS011;54618;52.018;5.576;2023-09-12T14:21:03;11.02;;;6.80;;
67819;SDS011;54618;52.018;5.576;2023-09-12T14:23:29;13.07;;;7.30;;
67819;SDS011;54618;52.018;5.576;2023-09-12T14:25:55;10.32;;;6.13;;
67819;SDS011;54618;52.018;5.576;2023-09-12T14:28:20;11.65;;;6.47;;
67819;SDS011;54618;52.018;5.576;2023-09-12T14:30:46;9.93;;;5.80;;
67819;SDS011;54618;52.018;5.576;2023-09-12T14:33:13;6.93;;;5.03;;
67819;SDS011;54618;52.018;5.576;2023-09-12T14:35:39;8.30;;;5.07;;
67819;SDS011;54618;52.018;5.576;2023-09-12T14:38:06;9.00;;;5.10;;
67819;SDS011;54618;52.018;5.576;2023-09-12T14:40:32;9.63;;;5.68;;
67819;SDS011;54618;52.018;5.576;2023-09-12T14:42:58;7.80;;;4.95;;
67819;SDS011;54618;52.018;5.576;2023-09-12T14:45:27;11.35;;;5.68;;